Belgium, New York
Current Conditions -  °F | °C
As of 1:54 PM on Sunday 21 Dec 2014 (Local Time) from KFZY Reporting Station
Overcast Overcast  
Wind Chill: -3°   Ceiling: 1500
Heat Index: -1°   Visibility: 7mi
Dew Point: -4°   Wind: 5mph
Humidity: 76%   Direction: 180°S
Pressure: 30.29"   Gusts: NA
Location:  43.1825°N, 76.3664°W
Report Text: KFZY 211854Z AUTO 18004KT 7SM OVC015 M01/M04 A3029 RMK AO2 SLP265 T10061044
Loading
Personal Weather Stations






























Interactive Weather Map New forecast layout! Learn more

10-Day Weather Forecast

Advertisements
Track Severe Weather on mobile